createdAt,value
2022-12-13T00:01:56.039Z,10.53
2022-12-13T00:04:24.909Z,10.93
2022-12-13T00:06:54.271Z,11.07
2022-12-13T00:09:22.835Z,10.40
2022-12-13T00:11:50.577Z,10.90
2022-12-13T00:14:18.606Z,11.40
2022-12-13T00:16:49.049Z,11.87
2022-12-13T00:19:19.155Z,11.33
2022-12-13T00:21:46.463Z,11.73
2022-12-13T00:24:14.762Z,11.03
2022-12-13T00:26:42.780Z,11.10
2022-12-13T00:29:11.873Z,11.47
2022-12-13T00:34:27.034Z,11.20
2022-12-13T00:36:55.216Z,10.93
2022-12-13T00:39:23.007Z,10.67
2022-12-13T00:41:50.541Z,10.93
2022-12-13T00:44:19.919Z,11.33
2022-12-13T00:46:47.461Z,10.37
2022-12-13T00:49:14.902Z,9.53
2022-12-13T00:51:42.128Z,9.80
2022-12-13T00:54:11.066Z,10.57
2022-12-13T00:56:38.609Z,9.13
2022-12-13T00:59:06.300Z,9.63
2022-12-13T01:01:36.701Z,9.77
2022-12-13T01:04:07.073Z,10.10
2022-12-13T01:06:45.962Z,10.03
2022-12-13T01:09:21.768Z,9.57
2022-12-13T01:11:50.521Z,10.53
2022-12-13T01:14:20.050Z,10.90
2022-12-13T01:16:47.477Z,11.00
2022-12-13T01:19:15.155Z,10.90
2022-12-13T01:21:42.405Z,11.10
2022-12-13T01:24:10.095Z,10.60
2022-12-13T01:26:37.439Z,10.80
2022-12-13T01:29:05.894Z,10.93
2022-12-13T01:31:33.835Z,10.80
2022-12-13T01:34:10.344Z,9.60
2022-12-13T01:36:38.690Z,9.53
2022-12-13T01:39:14.756Z,10.00
2022-12-13T01:41:45.503Z,12.80
2022-12-13T01:44:56.564Z,13.00
2022-12-13T01:47:55.139Z,11.43
2022-12-13T01:50:32.785Z,11.33
2022-12-13T01:53:01.359Z,10.67
2022-12-13T01:55:41.843Z,11.00
2022-12-13T01:58:10.162Z,10.57
2022-12-13T02:00:38.145Z,9.57
2022-12-13T02:03:09.514Z,10.13
2022-12-13T02:06:08.125Z,9.93
2022-12-13T02:08:37.104Z,9.30
2022-12-13T02:11:06.718Z,8.93
2022-12-13T02:13:33.930Z,9.07
2022-12-13T02:16:29.337Z,10.03
2022-12-13T02:19:31.741Z,9.30
2022-12-13T02:22:16.841Z,10.40
2022-12-13T02:25:10.589Z,9.80
2022-12-13T02:28:03.144Z,9.93
2022-12-13T02:31:17.754Z,9.57
2022-12-13T02:34:09.931Z,10.17
2022-12-13T02:36:58.668Z,7.80
2022-12-13T02:39:39.517Z,8.47
2022-12-13T02:42:27.899Z,8.50
2022-12-13T02:45:17.206Z,8.80
2022-12-13T02:47:52.443Z,10.07
2022-12-13T02:50:21.956Z,10.63
2022-12-13T02:52:51.486Z,11.90
2022-12-13T02:55:19.109Z,11.13
2022-12-13T02:57:46.652Z,11.03
2022-12-13T03:00:21.142Z,11.13
2022-12-13T03:03:00.624Z,11.87
2022-12-13T03:06:16.582Z,12.07
2022-12-13T03:08:58.401Z,11.33
2022-12-13T03:12:14.575Z,12.53
2022-12-13T03:15:01.612Z,11.20
2022-12-13T03:17:43.934Z,11.50
2022-12-13T03:20:22.931Z,10.87
2022-12-13T03:22:52.555Z,11.43
2022-12-13T03:25:31.505Z,10.83
2022-12-13T03:28:02.437Z,11.37
2022-12-13T03:30:33.089Z,10.77
2022-12-13T03:33:01.468Z,10.83
2022-12-13T03:35:34.122Z,10.70
2022-12-13T03:38:22.576Z,12.03
2022-12-13T03:40:55.435Z,10.73
2022-12-13T03:43:23.737Z,11.50
2022-12-13T03:45:54.383Z,11.33
2022-12-13T03:48:23.933Z,11.37
2022-12-13T03:50:54.276Z,12.07
2022-12-13T03:53:32.642Z,12.50
2022-12-13T03:56:06.990Z,12.23
2022-12-13T03:58:37.920Z,12.67
2022-12-13T04:01:09.928Z,11.17
2022-12-13T04:03:40.361Z,11.57
2022-12-13T04:06:08.638Z,12.27
2022-12-13T04:08:37.859Z,12.27
2022-12-13T04:11:25.359Z,12.67
2022-12-13T04:13:54.655Z,12.13
2022-12-13T04:16:23.752Z,11.97
2022-12-13T04:18:51.453Z,11.97
2022-12-13T04:21:18.700Z,12.50
2022-12-13T04:23:46.250Z,13.60
2022-12-13T04:26:13.710Z,12.37
2022-12-13T04:28:41.289Z,12.03
2022-12-13T04:31:08.789Z,10.53
2022-12-13T04:33:36.687Z,10.73
2022-12-13T04:36:04.526Z,10.67
2022-12-13T04:38:32.004Z,11.00
2022-12-13T04:41:13.493Z,11.70
2022-12-13T04:43:40.940Z,10.10
2022-12-13T04:46:08.641Z,11.30
2022-12-13T04:48:36.110Z,10.83
2022-12-13T04:51:03.417Z,11.00
2022-12-13T04:53:31.075Z,10.53
2022-12-13T04:55:59.701Z,10.83
2022-12-13T04:58:28.334Z,10.77
2022-12-13T05:00:55.816Z,10.53
2022-12-13T05:03:24.133Z,9.40
2022-12-13T05:05:51.453Z,9.63
2022-12-13T05:08:19.220Z,9.13
2022-12-13T05:10:46.484Z,9.07
2022-12-13T05:13:14.053Z,9.77
2022-12-13T05:15:41.287Z,9.97
2022-12-13T05:18:11.026Z,9.03
2022-12-13T05:20:39.815Z,10.00
2022-12-13T05:23:07.783Z,10.07
2022-12-13T05:25:37.188Z,9.27
2022-12-13T05:28:09.036Z,12.03
2022-12-13T05:30:53.736Z,10.73
2022-12-13T05:33:22.429Z,9.97
2022-12-13T05:35:50.017Z,9.57
2022-12-13T05:38:18.294Z,9.20
2022-12-13T05:40:45.566Z,10.00
2022-12-13T05:43:21.463Z,12.27
2022-12-13T05:45:50.737Z,10.67
2022-12-13T05:48:24.812Z,10.33
2022-12-13T05:51:09.971Z,10.13
2022-12-13T05:53:41.537Z,9.67
2022-12-13T05:56:11.662Z,9.77
2022-12-13T05:58:41.399Z,9.93
2022-12-13T06:01:13.424Z,12.67
2022-12-13T06:03:42.400Z,9.73
2022-12-13T06:06:12.643Z,10.10
2022-12-13T06:08:40.725Z,9.73
2022-12-13T06:11:09.916Z,10.03
2022-12-13T06:13:44.131Z,11.10
2022-12-13T06:16:22.237Z,10.23
2022-12-13T06:19:00.978Z,10.83
2022-12-13T06:21:43.833Z,10.97
2022-12-13T06:24:19.997Z,10.67
2022-12-13T06:26:47.444Z,11.23
2022-12-13T06:29:23.053Z,10.50
2022-12-13T06:32:02.825Z,12.13
2022-12-13T06:34:34.661Z,14.50
2022-12-13T06:37:07.184Z,10.53
2022-12-13T06:39:35.372Z,10.60
2022-12-13T06:42:06.633Z,10.83
2022-12-13T06:44:35.426Z,11.30
2022-12-13T06:47:11.352Z,11.40
2022-12-13T06:49:43.960Z,11.60
2022-12-13T06:52:13.548Z,10.00
2022-12-13T06:54:42.980Z,10.77
2022-12-13T06:57:12.216Z,10.47
2022-12-13T06:59:40.187Z,10.53
2022-12-13T07:02:24.342Z,10.93
2022-12-13T07:04:54.756Z,10.97
2022-12-13T07:07:23.320Z,11.10
2022-12-13T07:09:50.831Z,11.57
2022-12-13T07:12:19.344Z,11.00
2022-12-13T07:14:46.950Z,12.97
2022-12-13T07:17:32.407Z,13.80
2022-12-13T07:20:08.560Z,12.00
2022-12-13T07:22:44.798Z,13.57
2022-12-13T07:25:27.636Z,15.43
2022-12-13T07:28:03.001Z,12.63
2022-12-13T07:30:41.056Z,12.43
2022-12-13T07:33:09.938Z,14.43
2022-12-13T07:35:37.877Z,11.07
2022-12-13T07:38:10.886Z,12.27
2022-12-13T07:40:40.591Z,12.10
2022-12-13T07:43:09.748Z,13.27
2022-12-13T07:45:37.191Z,13.90
2022-12-13T07:48:06.415Z,13.07
2022-12-13T07:50:37.556Z,13.10
2022-12-13T07:53:08.297Z,14.57
2022-12-13T07:55:37.138Z,14.90
2022-12-13T07:58:10.283Z,16.00
2022-12-13T08:00:41.366Z,16.37
2022-12-13T08:03:24.170Z,14.50
2022-12-13T08:06:11.304Z,14.97
2022-12-13T08:08:39.614Z,27.40
2022-12-13T08:11:13.607Z,29.30
2022-12-13T08:13:41.555Z,17.23
2022-12-13T08:16:27.657Z,14.60
2022-12-13T08:19:01.951Z,15.53
2022-12-13T08:21:58.281Z,13.07
2022-12-13T08:24:30.822Z,13.93
2022-12-13T08:27:02.051Z,14.33
2022-12-13T08:29:33.967Z,16.20
2022-12-13T08:32:12.043Z,19.73
2022-12-13T08:34:42.097Z,12.32
2022-12-13T08:37:09.945Z,11.02
2022-12-13T08:39:39.716Z,12.07
2022-12-13T08:42:19.551Z,12.70
2022-12-13T08:44:50.871Z,12.57
2022-12-13T08:47:26.379Z,13.90
2022-12-13T08:50:02.336Z,13.30
2022-12-13T08:52:39.801Z,12.88
2022-12-13T08:55:14.613Z,12.07
2022-12-13T08:57:43.892Z,12.07
2022-12-13T09:00:16.155Z,12.93
2022-12-13T09:02:44.253Z,14.10
2022-12-13T09:05:13.277Z,13.03
2022-12-13T09:08:02.831Z,12.67
2022-12-13T09:10:31.072Z,14.20
2022-12-13T09:13:11.505Z,13.13
2022-12-13T09:15:45.866Z,13.27
2022-12-13T09:18:15.117Z,12.90
2022-12-13T09:20:43.032Z,11.77
2022-12-13T09:23:22.932Z,12.40
2022-12-13T09:25:56.289Z,12.73
2022-12-13T09:28:37.042Z,13.18
2022-12-13T09:31:19.243Z,13.00
2022-12-13T09:33:47.094Z,11.77
2022-12-13T09:36:19.241Z,10.07
2022-12-13T09:38:47.405Z,11.38
2022-12-13T09:42:00.985Z,11.10
2022-12-13T09:44:43.937Z,13.20
2022-12-13T09:47:34.983Z,9.93
2022-12-13T09:50:14.775Z,11.60
2022-12-13T09:52:46.215Z,12.20
2022-12-13T09:55:25.624Z,14.30
2022-12-13T09:57:53.403Z,12.98
2022-12-13T10:00:25.943Z,13.32
2022-12-13T10:02:58.954Z,13.25
2022-12-13T10:05:39.565Z,12.82
2022-12-13T10:08:16.729Z,14.05
2022-12-13T10:10:45.446Z,14.93
2022-12-13T10:13:28.175Z,15.82
2022-12-13T10:16:04.783Z,13.97
2022-12-13T10:18:38.668Z,13.18
2022-12-13T10:21:40.597Z,11.60
2022-12-13T10:24:32.864Z,12.07
2022-12-13T10:27:17.797Z,14.55
2022-12-13T10:30:12.807Z,17.67
2022-12-13T10:33:06.169Z,15.27
2022-12-13T10:35:36.865Z,16.00
2022-12-13T10:38:32.008Z,15.00
2022-12-13T10:41:00.953Z,15.80
2022-12-13T10:43:32.976Z,13.75
2022-12-13T10:46:02.202Z,13.57
2022-12-13T10:48:50.644Z,19.95
2022-12-13T10:51:22.281Z,13.30
2022-12-13T10:54:00.813Z,13.82
2022-12-13T10:56:47.754Z,12.73
2022-12-13T10:59:18.224Z,13.98
2022-12-13T11:01:45.547Z,11.85
2022-12-13T11:04:29.726Z,10.20
2022-12-13T11:07:00.528Z,11.90
2022-12-13T11:09:38.642Z,11.35
2022-12-13T11:12:17.956Z,11.57
2022-12-13T11:15:01.939Z,10.38
2022-12-13T11:17:34.659Z,13.48
2022-12-13T11:20:30.188Z,18.05
2022-12-13T11:23:39.373Z,14.27
2022-12-13T11:26:14.816Z,12.35
2022-12-13T11:29:20.230Z,17.50
2022-12-13T11:32:12.761Z,21.00
2022-12-13T11:35:16.540Z,25.23
2022-12-13T11:38:30.575Z,20.52
2022-12-13T11:41:11.413Z,16.73
2022-12-13T11:44:04.155Z,19.90
2022-12-13T11:46:55.980Z,15.65
2022-12-13T11:49:38.816Z,13.88
2022-12-13T11:52:18.224Z,17.42
2022-12-13T11:54:57.489Z,14.53
2022-12-13T11:57:44.720Z,16.23
2022-12-13T12:00:44.480Z,17.67
2022-12-13T12:03:40.068Z,14.70
2022-12-13T12:06:21.582Z,19.15
2022-12-13T12:08:58.913Z,14.17
2022-12-13T12:12:16.556Z,19.20
2022-12-13T12:15:17.257Z,15.07
2022-12-13T12:17:45.358Z,12.70
2022-12-13T12:20:23.909Z,13.63
2022-12-13T12:23:25.686Z,16.57
2022-12-13T12:26:09.002Z,15.53
2022-12-13T12:29:39.794Z,11.75
2022-12-13T12:32:19.278Z,13.10
2022-12-13T12:35:55.221Z,15.05
2022-12-13T12:38:44.425Z,15.23
2022-12-13T12:41:45.236Z,16.15
2022-12-13T12:44:39.849Z,16.20
2022-12-13T12:48:46.292Z,32.17
2022-12-13T12:50:37.310Z,22.80
2022-12-13T12:53:31.723Z,28.07
2022-12-13T12:56:39.403Z,18.30
2022-12-13T12:59:27.743Z,23.00
2022-12-13T13:02:14.648Z,18.40
2022-12-13T13:04:57.361Z,18.27
2022-12-13T13:07:40.377Z,16.47
2022-12-13T13:10:16.760Z,20.87
2022-12-13T13:13:12.490Z,14.90
2022-12-13T13:15:40.688Z,15.40
2022-12-13T13:18:47.523Z,15.95
2022-12-13T13:21:24.004Z,16.08
2022-12-13T13:24:09.223Z,15.63
2022-12-13T13:26:48.335Z,15.13
2022-12-13T13:29:27.194Z,15.07
2022-12-13T13:32:29.534Z,14.50
2022-12-13T13:35:43.547Z,15.93
2022-12-13T13:38:17.004Z,15.80
2022-12-13T13:40:44.254Z,16.20
2022-12-13T13:43:11.789Z,16.20
2022-12-13T13:46:03.254Z,17.17
2022-12-13T13:49:04.535Z,14.20
2022-12-13T13:55:12.971Z,14.23
2022-12-13T13:58:11.117Z,15.17
2022-12-13T14:01:23.008Z,13.70
2022-12-13T14:04:09.075Z,15.27
2022-12-13T14:07:09.600Z,15.73
2022-12-13T14:10:23.675Z,17.43
2022-12-13T14:13:23.571Z,17.00
2022-12-13T14:16:41.663Z,18.30
2022-12-13T14:19:42.819Z,18.90
2022-12-13T14:22:50.177Z,18.43
2022-12-13T14:26:03.677Z,20.10
2022-12-13T14:28:52.026Z,19.73
2022-12-13T14:31:30.937Z,20.10
2022-12-13T14:34:01.580Z,18.90
2022-12-13T14:36:35.412Z,19.50
2022-12-13T14:39:16.323Z,19.10
2022-12-13T14:41:56.305Z,19.43
2022-12-13T14:44:34.495Z,16.47
2022-12-13T14:47:07.543Z,17.27
2022-12-13T14:49:41.764Z,18.70
2022-12-13T14:52:26.196Z,19.37
2022-12-13T14:55:04.777Z,20.90
2022-12-13T14:57:35.195Z,21.07
2022-12-13T15:00:28.734Z,20.17
2022-12-13T15:03:01.469Z,20.67
2022-12-13T15:05:44.305Z,20.77
2022-12-13T15:08:19.638Z,21.90
2022-12-13T15:10:52.176Z,22.83
2022-12-13T15:13:53.000Z,20.53
2022-12-13T15:16:28.633Z,21.03
2022-12-13T15:19:30.943Z,23.17
2022-12-13T15:22:13.144Z,23.07
2022-12-13T15:24:47.119Z,24.07
2022-12-13T15:27:17.467Z,26.10
2022-12-13T15:29:47.556Z,24.40
2022-12-13T15:32:19.289Z,24.63
2022-12-13T15:34:47.800Z,23.50
2022-12-13T15:37:29.136Z,26.47
2022-12-13T15:40:08.864Z,27.23
2022-12-13T15:42:43.704Z,26.67
2022-12-13T15:45:31.778Z,27.97
2022-12-13T15:48:05.558Z,26.43
2022-12-13T15:50:45.513Z,28.53
2022-12-13T15:53:28.040Z,26.60
2022-12-13T15:55:56.012Z,28.80
2022-12-13T15:58:33.698Z,30.53
2022-12-13T16:01:05.921Z,32.53
2022-12-13T16:03:44.724Z,33.73
2022-12-13T16:06:23.793Z,34.20
2022-12-13T16:08:57.028Z,36.93
2022-12-13T16:12:07.293Z,35.47
2022-12-13T16:14:48.900Z,38.97
2022-12-13T16:17:27.429Z,39.17
2022-12-13T16:20:02.115Z,40.00
2022-12-13T16:22:33.562Z,41.17
2022-12-13T16:25:00.752Z,44.83
2022-12-13T16:27:28.512Z,47.80
2022-12-13T16:29:55.953Z,46.00
2022-12-13T16:32:23.629Z,44.83
2022-12-13T16:34:50.940Z,45.73
2022-12-13T16:37:26.510Z,44.43
2022-12-13T16:39:55.371Z,43.63
2022-12-13T16:42:27.053Z,45.93
2022-12-13T16:45:40.564Z,47.97
2022-12-13T16:47:49.513Z,42.17
2022-12-13T16:50:21.577Z,40.83
2022-12-13T16:52:49.776Z,44.20
2022-12-13T16:55:17.367Z,35.90
2022-12-13T16:57:55.522Z,35.40
2022-12-13T17:00:23.102Z,33.67
2022-12-13T17:02:51.121Z,33.60
2022-12-13T17:05:18.820Z,30.83
2022-12-13T17:07:46.775Z,21.90
2022-12-13T17:10:14.804Z,19.63
2022-12-13T17:12:42.628Z,19.30
2022-12-13T17:15:11.821Z,20.10
2022-12-13T17:17:43.183Z,24.33
2022-12-13T17:20:17.287Z,21.93
2022-12-13T17:22:45.791Z,17.53
2022-12-13T17:25:14.338Z,14.87
2022-12-13T17:27:42.654Z,14.27
2022-12-13T17:30:15.895Z,12.83
2022-12-13T17:32:44.268Z,11.03
2022-12-13T17:35:17.918Z,11.63
2022-12-13T17:37:46.306Z,12.80
2022-12-13T17:40:13.678Z,17.93
2022-12-13T17:42:41.261Z,15.93
2022-12-13T17:45:09.001Z,16.47
2022-12-13T17:47:36.740Z,15.17
2022-12-13T17:50:04.383Z,15.73
2022-12-13T17:52:31.906Z,14.57
2022-12-13T17:55:01.006Z,14.27
2022-12-13T17:57:28.552Z,12.60
2022-12-13T17:59:55.781Z,13.70
2022-12-13T18:02:23.416Z,11.13
2022-12-13T18:04:50.869Z,11.07
2022-12-13T18:07:19.324Z,15.30
2022-12-13T18:09:46.601Z,14.87
2022-12-13T18:12:15.735Z,15.93
2022-12-13T18:14:43.703Z,17.33
2022-12-13T18:17:11.228Z,18.33
2022-12-13T18:19:38.407Z,18.50
2022-12-13T18:22:05.945Z,22.33
2022-12-13T18:24:33.152Z,21.90
2022-12-13T18:27:00.739Z,21.47
2022-12-13T18:29:28.012Z,22.57
2022-12-13T18:31:55.694Z,19.60
2022-12-13T18:34:22.946Z,20.73
2022-12-13T18:36:50.509Z,20.80
2022-12-13T18:39:18.085Z,20.97
2022-12-13T18:41:45.683Z,20.93
2022-12-13T18:44:13.646Z,21.17
2022-12-13T18:46:45.762Z,22.37
2022-12-13T18:49:13.493Z,23.13
2022-12-13T18:51:41.017Z,21.47
2022-12-13T18:54:08.288Z,23.53
2022-12-13T18:56:35.834Z,23.87
2022-12-13T18:59:03.113Z,23.10
2022-12-13T19:01:31.343Z,21.83
2022-12-13T19:03:58.772Z,20.07
2022-12-13T19:06:28.326Z,22.57
2022-12-13T19:08:58.150Z,22.10
2022-12-13T19:11:28.100Z,21.57
2022-12-13T19:13:55.595Z,25.80
2022-12-13T19:16:24.859Z,23.23
2022-12-13T19:18:52.611Z,26.10
2022-12-13T19:21:22.456Z,23.90
2022-12-13T19:23:57.042Z,25.53
2022-12-13T19:26:29.470Z,22.97
2022-12-13T19:28:59.055Z,22.47
2022-12-13T19:31:31.879Z,24.80
2022-12-13T19:34:03.693Z,27.33
2022-12-13T19:36:32.832Z,27.20
2022-12-13T19:39:01.089Z,27.70
2022-12-13T19:41:29.712Z,25.83
2022-12-13T19:43:57.077Z,25.10
2022-12-13T19:46:24.857Z,25.97
2022-12-13T19:48:52.413Z,24.23
2022-12-13T19:51:20.070Z,23.10
2022-12-13T19:53:47.467Z,22.47
2022-12-13T19:56:19.430Z,23.23
2022-12-13T19:58:49.221Z,22.23
2022-12-13T20:01:18.157Z,23.93
2022-12-13T20:03:46.782Z,25.73
2022-12-13T20:06:22.288Z,22.20
2022-12-13T20:08:50.937Z,23.90
2022-12-13T20:11:23.129Z,20.97
2022-12-13T20:13:55.032Z,21.07
2022-12-13T20:16:26.000Z,18.50
2022-12-13T20:18:59.160Z,23.20
2022-12-13T20:21:28.770Z,24.43
2022-12-13T20:23:57.872Z,25.17
2022-12-13T20:26:30.212Z,27.83
2022-12-13T20:28:58.022Z,31.00
2022-12-13T20:31:32.746Z,25.27
2022-12-13T20:34:04.715Z,21.77
2022-12-13T20:36:32.933Z,23.30
2022-12-13T20:39:02.594Z,23.03
2022-12-13T20:41:34.213Z,20.17
2022-12-13T20:44:04.508Z,18.10
2022-12-13T20:46:33.012Z,17.73
2022-12-13T20:49:04.095Z,16.17
2022-12-13T20:51:33.531Z,18.23
2022-12-13T20:54:01.095Z,18.10
2022-12-13T20:56:34.485Z,16.73
2022-12-13T20:59:04.509Z,15.60
2022-12-13T21:01:37.917Z,14.70
2022-12-13T21:04:07.825Z,16.57
2022-12-13T21:06:40.705Z,16.73
2022-12-13T21:09:10.895Z,18.37
2022-12-13T21:11:47.924Z,18.40
2022-12-13T21:14:21.194Z,19.00
2022-12-13T21:16:57.994Z,19.13
2022-12-13T21:19:39.070Z,19.93
2022-12-13T21:22:07.984Z,22.50
2022-12-13T21:24:35.309Z,23.33
2022-12-13T21:27:02.873Z,23.17
2022-12-13T21:29:30.063Z,29.70
2022-12-13T21:31:57.696Z,29.13
2022-12-13T21:34:25.095Z,33.17
2022-12-13T21:36:53.441Z,33.63
2022-12-13T21:39:24.838Z,39.07
2022-12-13T21:41:52.581Z,41.87
2022-12-13T21:44:20.596Z,44.33
2022-12-13T21:49:36.488Z,42.10
2022-12-13T21:52:04.198Z,40.40
2022-12-13T21:54:31.539Z,26.50
2022-12-13T21:57:17.739Z,30.43
2022-12-13T21:59:46.004Z,35.20
2022-12-13T22:02:18.492Z,32.07
2022-12-13T22:04:55.776Z,25.47
2022-12-13T22:07:32.795Z,30.53
2022-12-13T22:10:02.205Z,28.30
2022-12-13T22:12:39.718Z,37.63
2022-12-13T22:15:12.059Z,36.13
2022-12-13T22:17:41.271Z,48.03
2022-12-13T22:20:13.766Z,49.27
2022-12-13T22:22:44.233Z,45.87
2022-12-13T22:25:11.722Z,51.40
2022-12-13T22:27:39.345Z,48.27
2022-12-13T22:30:07.659Z,47.70
2022-12-13T22:32:35.324Z,46.30
2022-12-13T22:35:02.661Z,41.13
2022-12-13T22:37:30.396Z,38.80
2022-12-13T22:39:57.619Z,39.03
2022-12-13T22:42:25.209Z,39.27
2022-12-13T22:44:52.405Z,41.47
2022-12-13T22:47:19.853Z,41.77
2022-12-13T22:49:48.702Z,42.70
2022-12-13T22:52:17.332Z,41.13
2022-12-13T22:54:44.550Z,43.13
2022-12-13T22:57:12.146Z,44.57
2022-12-13T22:59:39.336Z,43.73
2022-12-13T23:02:07.774Z,44.33
2022-12-13T23:04:35.163Z,45.63
2022-12-13T23:07:02.678Z,43.57
2022-12-13T23:09:29.874Z,43.27
2022-12-13T23:12:16.139Z,43.13
2022-12-13T23:14:43.362Z,44.43
2022-12-13T23:17:10.907Z,43.47
2022-12-13T23:19:50.827Z,42.10
2022-12-13T23:22:23.799Z,44.33
2022-12-13T23:24:53.085Z,44.23
2022-12-13T23:27:24.854Z,42.00
2022-12-13T23:29:52.231Z,42.57
2022-12-13T23:32:19.804Z,41.77
2022-12-13T23:34:47.077Z,42.33
2022-12-13T23:37:14.593Z,49.07
2022-12-13T23:39:41.790Z,40.90
2022-12-13T23:42:09.699Z,48.57
2022-12-13T23:44:36.940Z,51.70
2022-12-13T23:47:04.661Z,46.70
2022-12-13T23:49:32.412Z,47.07
2022-12-13T23:51:59.867Z,54.57
2022-12-13T23:54:27.228Z,49.50
2022-12-13T23:56:54.771Z,45.30
2022-12-13T23:59:21.990Z,46.00
